createdAt,value
2023-03-29T00:00:56.437Z,714.00
2023-03-29T00:01:56.422Z,714.00
2023-03-29T00:02:56.643Z,714.00
2023-03-29T00:03:56.479Z,714.00
2023-03-29T00:04:56.334Z,713.00
2023-03-29T00:05:56.348Z,714.00
2023-03-29T00:06:56.324Z,714.00
2023-03-29T00:07:56.291Z,713.00
2023-03-29T00:08:56.327Z,714.00
2023-03-29T00:09:56.275Z,714.00
2023-03-29T00:10:56.275Z,714.00
2023-03-29T00:11:56.249Z,714.00
2023-03-29T00:12:56.244Z,714.00
2023-03-29T00:13:56.251Z,714.00
2023-03-29T00:14:56.228Z,714.00
2023-03-29T00:15:56.217Z,714.00
2023-03-29T00:16:56.234Z,714.00
2023-03-29T00:17:56.274Z,714.00
2023-03-29T00:18:56.159Z,714.00
2023-03-29T00:19:56.164Z,714.00
2023-03-29T00:20:56.130Z,714.00
2023-03-29T00:21:56.131Z,714.00
2023-03-29T00:22:56.107Z,714.00
2023-03-29T00:23:56.088Z,715.00
2023-03-29T00:24:56.093Z,715.00
2023-03-29T00:25:56.090Z,715.00
2023-03-29T00:26:56.036Z,715.00
2023-03-29T00:27:56.037Z,715.00
2023-03-29T00:28:56.015Z,715.00
2023-03-29T00:29:56.079Z,715.00
2023-03-29T00:30:56.024Z,715.00
2023-03-29T00:31:56.096Z,715.00
2023-03-29T00:32:56.057Z,715.00
2023-03-29T00:33:55.971Z,715.00
2023-03-29T00:34:55.977Z,715.00
2023-03-29T00:35:55.998Z,715.00
2023-03-29T00:36:55.911Z,715.00
2023-03-29T00:37:55.922Z,715.00
2023-03-29T00:38:55.905Z,715.00
2023-03-29T00:39:55.890Z,715.00
2023-03-29T00:40:55.865Z,715.00
2023-03-29T00:41:55.896Z,715.00
2023-03-29T00:42:55.850Z,715.00
2023-03-29T00:43:55.889Z,715.00
2023-03-29T00:44:55.839Z,715.00
2023-03-29T00:45:55.962Z,715.00
2023-03-29T00:46:55.813Z,715.00
2023-03-29T00:47:55.868Z,715.00
2023-03-29T00:48:55.799Z,715.00
2023-03-29T00:49:55.792Z,715.00
2023-03-29T00:50:55.763Z,715.00
2023-03-29T00:51:55.754Z,715.00
2023-03-29T00:52:55.728Z,715.00
2023-03-29T00:53:55.701Z,715.00
2023-03-29T00:54:55.692Z,715.00
2023-03-29T00:55:55.699Z,715.00
2023-03-29T00:56:55.681Z,715.00
2023-03-29T00:57:55.711Z,715.00
2023-03-29T00:58:55.632Z,715.00
2023-03-29T00:59:55.664Z,715.00
2023-03-29T01:00:55.653Z,715.00
2023-03-29T01:01:55.647Z,715.00
2023-03-29T01:02:55.680Z,715.00
2023-03-29T01:03:55.643Z,715.00
2023-03-29T01:04:55.577Z,715.00
2023-03-29T01:05:55.570Z,715.00
2023-03-29T01:06:55.654Z,715.00
2023-03-29T01:07:55.559Z,715.00
2023-03-29T01:08:55.538Z,715.00
2023-03-29T01:09:55.513Z,715.00
2023-03-29T01:10:55.517Z,715.00
2023-03-29T01:11:55.505Z,715.00
2023-03-29T01:12:55.478Z,715.00
2023-03-29T01:13:55.520Z,715.00
2023-03-29T01:14:55.477Z,715.00
2023-03-29T01:15:55.498Z,715.00
2023-03-29T01:16:55.467Z,715.00
2023-03-29T01:17:55.444Z,715.00
2023-03-29T01:18:55.408Z,715.00
2023-03-29T01:19:55.387Z,715.00
2023-03-29T01:20:55.392Z,715.00
2023-03-29T01:21:55.372Z,716.00
2023-03-29T01:22:55.327Z,716.00
2023-03-29T01:23:55.339Z,716.00
2023-03-29T01:24:55.325Z,716.00
2023-03-29T01:25:55.351Z,716.00
2023-03-29T01:26:55.420Z,716.00
2023-03-29T01:27:55.320Z,716.00
2023-03-29T01:28:55.288Z,716.00
2023-03-29T01:29:55.275Z,716.00
2023-03-29T01:30:55.260Z,716.00
2023-03-29T01:31:55.278Z,716.00
2023-03-29T01:32:55.285Z,716.00
2023-03-29T01:33:55.219Z,715.00
2023-03-29T01:34:55.195Z,715.00
2023-03-29T01:35:55.223Z,715.00
2023-03-29T01:36:55.196Z,715.00
2023-03-29T01:37:55.187Z,715.00
2023-03-29T01:38:55.144Z,715.00
2023-03-29T01:39:55.143Z,715.00
2023-03-29T01:40:55.129Z,715.00
2023-03-29T01:41:55.122Z,715.00
2023-03-29T01:42:55.099Z,715.00
2023-03-29T01:43:55.069Z,715.00
2023-03-29T01:44:55.068Z,715.00
2023-03-29T01:45:55.068Z,715.00
2023-03-29T01:46:55.035Z,715.00
2023-03-29T01:47:55.077Z,715.00
2023-03-29T01:48:55.009Z,715.00
2023-03-29T01:49:55.014Z,715.00
2023-03-29T01:50:54.985Z,715.00
2023-03-29T01:51:54.984Z,715.00
2023-03-29T01:52:54.986Z,715.00
2023-03-29T01:53:54.965Z,715.00
2023-03-29T01:54:54.970Z,715.00
2023-03-29T01:55:54.940Z,715.00
2023-03-29T01:56:54.981Z,715.00
2023-03-29T01:57:54.911Z,715.00
2023-03-29T01:58:54.909Z,715.00
2023-03-29T01:59:54.892Z,715.00
2023-03-29T02:00:54.920Z,715.00
2023-03-29T02:01:54.912Z,715.00
2023-03-29T02:02:54.943Z,715.00
2023-03-29T02:03:54.826Z,715.00
2023-03-29T02:04:54.830Z,715.00
2023-03-29T02:05:54.821Z,715.00
2023-03-29T02:06:54.799Z,715.00
2023-03-29T02:07:54.788Z,715.00
2023-03-29T02:08:54.760Z,715.00
2023-03-29T02:09:54.768Z,715.00
2023-03-29T02:10:54.748Z,715.00
2023-03-29T02:11:54.729Z,715.00
2023-03-29T02:12:54.725Z,715.00
2023-03-29T02:13:54.712Z,715.00
2023-03-29T02:14:54.693Z,715.00
2023-03-29T02:15:54.748Z,715.00
2023-03-29T02:16:54.677Z,715.00
2023-03-29T02:17:54.730Z,715.00
2023-03-29T02:18:54.633Z,715.00
2023-03-29T02:19:54.615Z,715.00
2023-03-29T02:20:54.646Z,715.00
2023-03-29T02:21:54.589Z,715.00
2023-03-29T02:22:54.602Z,715.00
2023-03-29T02:23:54.579Z,715.00
2023-03-29T02:24:54.579Z,715.00
2023-03-29T02:25:54.598Z,715.00
2023-03-29T02:26:54.523Z,715.00
2023-03-29T02:27:54.535Z,715.00
2023-03-29T02:28:54.524Z,715.00
2023-03-29T02:29:54.488Z,716.00
2023-03-29T02:30:54.569Z,715.00
2023-03-29T02:31:54.476Z,715.00
2023-03-29T02:32:54.458Z,715.00
2023-03-29T02:33:54.438Z,716.00
2023-03-29T02:34:54.437Z,715.00
2023-03-29T02:35:54.493Z,715.00
2023-03-29T02:36:54.442Z,715.00
2023-03-29T02:37:54.426Z,715.00
2023-03-29T02:38:54.401Z,715.00
2023-03-29T02:39:54.387Z,715.00
2023-03-29T02:40:54.359Z,715.00
2023-03-29T02:41:54.360Z,715.00
2023-03-29T02:42:54.331Z,715.00
2023-03-29T02:43:54.337Z,715.00
2023-03-29T02:44:54.322Z,715.00
2023-03-29T02:45:54.338Z,715.00
2023-03-29T02:46:54.349Z,715.00
2023-03-29T02:47:54.361Z,715.00
2023-03-29T02:48:54.250Z,715.00
2023-03-29T02:49:54.263Z,715.00
2023-03-29T02:50:54.254Z,715.00
2023-03-29T02:51:54.250Z,715.00
2023-03-29T02:52:54.233Z,716.00
2023-03-29T02:53:54.246Z,715.00
2023-03-29T02:54:54.192Z,716.00
2023-03-29T02:55:54.214Z,715.00
2023-03-29T02:56:54.174Z,715.00
2023-03-29T02:57:54.147Z,715.00
2023-03-29T02:58:54.163Z,715.00
2023-03-29T02:59:54.151Z,715.00
2023-03-29T03:00:54.129Z,715.00
2023-03-29T03:01:54.098Z,715.00
2023-03-29T03:02:54.139Z,715.00
2023-03-29T03:03:54.242Z,715.00
2023-03-29T03:04:54.073Z,715.00
2023-03-29T03:05:54.043Z,715.00
2023-03-29T03:06:54.049Z,715.00
2023-03-29T03:07:54.021Z,715.00
2023-03-29T03:08:54.044Z,715.00
2023-03-29T03:09:54.144Z,715.00
2023-03-29T03:10:53.991Z,715.00
2023-03-29T03:11:53.990Z,715.00
2023-03-29T03:12:53.969Z,715.00
2023-03-29T03:13:53.939Z,715.00
2023-03-29T03:14:53.963Z,715.00
2023-03-29T03:15:53.996Z,715.00
2023-03-29T03:16:53.894Z,715.00
2023-03-29T03:17:54.005Z,715.00
2023-03-29T03:18:53.893Z,715.00
2023-03-29T03:19:53.878Z,715.00
2023-03-29T03:20:53.860Z,715.00
2023-03-29T03:21:53.844Z,715.00
2023-03-29T03:22:53.847Z,715.00
2023-03-29T03:23:53.810Z,715.00
2023-03-29T03:24:53.815Z,715.00
2023-03-29T03:25:53.816Z,715.00
2023-03-29T03:26:53.789Z,715.00
2023-03-29T03:27:53.782Z,715.00
2023-03-29T03:28:53.752Z,715.00
2023-03-29T03:29:53.758Z,715.00
2023-03-29T03:30:53.735Z,715.00
2023-03-29T03:31:54.264Z,715.00
2023-03-29T03:32:53.756Z,715.00
2023-03-29T03:33:53.685Z,715.00
2023-03-29T03:34:53.690Z,715.00
2023-03-29T03:35:53.670Z,715.00
2023-03-29T03:36:53.661Z,715.00
2023-03-29T03:37:53.621Z,715.00
2023-03-29T03:38:53.621Z,715.00
2023-03-29T03:39:53.619Z,715.00
2023-03-29T03:40:53.606Z,715.00
2023-03-29T03:41:53.580Z,715.00
2023-03-29T03:42:53.591Z,715.00
2023-03-29T03:43:53.558Z,715.00
2023-03-29T03:44:53.619Z,715.00
2023-03-29T03:45:53.555Z,715.00
2023-03-29T03:46:53.537Z,714.00
2023-03-29T03:47:53.586Z,715.00
2023-03-29T03:48:53.522Z,715.00
2023-03-29T03:49:53.499Z,714.00
2023-03-29T03:50:53.475Z,714.00
2023-03-29T03:51:53.442Z,714.00
2023-03-29T03:52:53.476Z,714.00
2023-03-29T03:53:53.416Z,714.00
2023-03-29T03:54:53.421Z,714.00
2023-03-29T03:55:53.384Z,715.00
2023-03-29T03:56:53.418Z,715.00
2023-03-29T03:57:53.408Z,715.00
2023-03-29T03:58:53.383Z,715.00
2023-03-29T03:59:53.369Z,715.00
2023-03-29T04:00:53.336Z,715.00
2023-03-29T04:01:53.328Z,715.00
2023-03-29T04:02:53.355Z,715.00
2023-03-29T04:03:53.424Z,715.00
2023-03-29T04:04:53.306Z,715.00
2023-03-29T04:05:53.268Z,715.00
2023-03-29T04:06:53.291Z,715.00
2023-03-29T04:07:53.258Z,715.00
2023-03-29T04:08:53.255Z,714.00
2023-03-29T04:09:53.266Z,715.00
2023-03-29T04:10:53.213Z,715.00
2023-03-29T04:11:53.223Z,715.00
2023-03-29T04:12:53.197Z,715.00
2023-03-29T04:13:53.163Z,715.00
2023-03-29T04:14:53.186Z,715.00
2023-03-29T04:15:53.211Z,715.00
2023-03-29T04:16:53.134Z,715.00
2023-03-29T04:17:53.203Z,715.00
2023-03-29T04:18:53.161Z,715.00
2023-03-29T04:19:53.089Z,715.00
2023-03-29T04:20:53.115Z,715.00
2023-03-29T04:21:53.101Z,715.00
2023-03-29T04:22:53.075Z,715.00
2023-03-29T04:23:53.083Z,715.00
2023-03-29T04:24:53.037Z,715.00
2023-03-29T04:25:53.011Z,715.00
2023-03-29T04:26:53.039Z,715.00
2023-03-29T04:27:52.994Z,715.00
2023-03-29T04:28:52.992Z,715.00
2023-03-29T04:29:52.987Z,715.00
2023-03-29T04:30:53.089Z,714.00
2023-03-29T04:31:53.018Z,715.00
2023-03-29T04:32:52.983Z,715.00
2023-03-29T04:33:52.935Z,715.00
2023-03-29T04:34:52.929Z,714.00
2023-03-29T04:35:52.931Z,714.00
2023-03-29T04:36:52.892Z,715.00
2023-03-29T04:37:52.901Z,714.00
2023-03-29T04:38:52.912Z,715.00
2023-03-29T04:39:52.873Z,715.00
2023-03-29T04:40:52.997Z,714.00
2023-03-29T04:41:52.843Z,714.00
2023-03-29T04:42:52.817Z,715.00
2023-03-29T04:43:52.818Z,715.00
2023-03-29T04:44:52.841Z,715.00
2023-03-29T04:45:52.792Z,715.00
2023-03-29T04:46:52.861Z,715.00
2023-03-29T04:47:52.789Z,715.00
2023-03-29T04:48:52.759Z,715.00
2023-03-29T04:49:52.746Z,715.00
2023-03-29T04:50:52.732Z,715.00
2023-03-29T04:51:52.691Z,715.00
2023-03-29T04:52:52.697Z,715.00
2023-03-29T04:53:52.731Z,715.00
2023-03-29T04:54:52.704Z,714.00
2023-03-29T04:55:52.660Z,715.00
2023-03-29T04:56:52.691Z,714.00
2023-03-29T04:57:52.653Z,715.00
2023-03-29T04:58:52.620Z,715.00
2023-03-29T04:59:52.586Z,715.00
2023-03-29T05:00:52.655Z,715.00
2023-03-29T05:01:52.658Z,715.00
2023-03-29T05:02:52.567Z,715.00
2023-03-29T05:03:52.621Z,715.00
2023-03-29T05:04:52.550Z,715.00
2023-03-29T05:05:52.533Z,715.00
2023-03-29T05:06:52.545Z,715.00
2023-03-29T05:07:52.529Z,715.00
2023-03-29T05:08:52.549Z,715.00
2023-03-29T05:09:52.549Z,715.00
2023-03-29T05:10:52.471Z,715.00
2023-03-29T05:11:52.501Z,715.00
2023-03-29T05:12:52.473Z,715.00
2023-03-29T05:13:52.414Z,715.00
2023-03-29T05:14:52.464Z,715.00
2023-03-29T05:15:52.450Z,715.00
2023-03-29T05:16:52.420Z,715.00
2023-03-29T05:17:52.465Z,715.00
2023-03-29T05:18:52.353Z,715.00
2023-03-29T05:19:52.334Z,714.00
2023-03-29T05:20:52.325Z,715.00
2023-03-29T05:21:52.334Z,715.00
2023-03-29T05:22:52.337Z,715.00
2023-03-29T05:23:52.309Z,715.00
2023-03-29T05:24:52.341Z,715.00
2023-03-29T05:25:52.258Z,715.00
2023-03-29T05:26:52.265Z,715.00
2023-03-29T05:27:52.289Z,715.00
2023-03-29T05:28:52.281Z,715.00
2023-03-29T05:29:52.244Z,715.00
2023-03-29T05:30:52.220Z,715.00
2023-03-29T05:31:52.392Z,715.00
2023-03-29T05:32:52.213Z,715.00
2023-03-29T05:33:52.205Z,715.00
2023-03-29T05:34:52.167Z,715.00
2023-03-29T05:35:52.231Z,716.00
2023-03-29T05:36:52.143Z,716.00
2023-03-29T05:37:52.120Z,716.00
2023-03-29T05:38:52.173Z,716.00
2023-03-29T05:39:52.126Z,716.00
2023-03-29T05:40:52.104Z,715.00
2023-03-29T05:41:52.100Z,716.00
2023-03-29T05:42:52.140Z,715.00
2023-03-29T05:43:52.053Z,716.00
2023-03-29T05:44:54.497Z,715.00
2023-03-29T05:45:52.155Z,715.00
2023-03-29T05:46:52.035Z,715.00
2023-03-29T05:47:52.125Z,715.00
2023-03-29T05:48:52.041Z,716.00
2023-03-29T05:49:51.981Z,716.00
2023-03-29T05:50:52.000Z,716.00
2023-03-29T05:51:52.038Z,716.00
2023-03-29T05:52:51.964Z,716.00
2023-03-29T05:53:51.923Z,716.00
2023-03-29T05:54:51.927Z,716.00
2023-03-29T05:55:51.885Z,716.00
2023-03-29T05:56:51.993Z,716.00
2023-03-29T05:57:51.869Z,716.00
2023-03-29T05:58:53.025Z,716.00
2023-03-29T05:59:51.864Z,716.00
2023-03-29T06:00:51.908Z,716.00
2023-03-29T06:01:51.814Z,716.00
2023-03-29T06:02:51.886Z,716.00
2023-03-29T06:03:51.921Z,716.00
2023-03-29T06:04:51.817Z,717.00
2023-03-29T06:05:51.767Z,716.00
2023-03-29T06:06:51.741Z,717.00
2023-03-29T06:07:51.735Z,717.00
2023-03-29T06:08:51.704Z,717.00
2023-03-29T06:09:51.751Z,717.00
2023-03-29T06:10:51.709Z,717.00
2023-03-29T06:11:51.696Z,717.00
2023-03-29T06:12:51.683Z,717.00
2023-03-29T06:13:51.658Z,717.00
2023-03-29T06:14:51.659Z,717.00
2023-03-29T06:15:51.721Z,717.00
2023-03-29T06:16:51.680Z,717.00
2023-03-29T06:17:51.702Z,717.00
2023-03-29T06:18:51.600Z,717.00
2023-03-29T06:19:51.555Z,717.00
2023-03-29T06:20:51.546Z,717.00
2023-03-29T06:21:51.524Z,717.00
2023-03-29T06:22:51.538Z,717.00
2023-03-29T06:23:51.532Z,717.00
2023-03-29T06:24:51.511Z,717.00
2023-03-29T06:25:51.569Z,717.00
2023-03-29T06:26:51.489Z,717.00
2023-03-29T06:27:51.450Z,717.00
2023-03-29T06:28:52.379Z,717.00
2023-03-29T06:29:51.432Z,717.00
2023-03-29T06:30:51.480Z,718.00
2023-03-29T06:31:51.439Z,718.00
2023-03-29T06:32:51.420Z,717.00
2023-03-29T06:33:51.385Z,717.00
2023-03-29T06:34:51.357Z,717.00
2023-03-29T06:35:51.386Z,718.00
2023-03-29T06:36:51.345Z,718.00
2023-03-29T06:37:51.337Z,718.00
2023-03-29T06:38:51.319Z,718.00
2023-03-29T06:39:52.820Z,718.00
2023-03-29T06:40:51.313Z,718.00
2023-03-29T06:41:51.288Z,718.00
2023-03-29T06:42:51.293Z,718.00
2023-03-29T06:43:51.246Z,718.00
2023-03-29T06:44:51.230Z,718.00
2023-03-29T06:45:51.233Z,718.00
2023-03-29T06:46:51.263Z,718.00
2023-03-29T06:47:51.249Z,718.00
2023-03-29T06:48:51.189Z,718.00
2023-03-29T06:49:51.163Z,718.00
2023-03-29T06:50:51.171Z,718.00
2023-03-29T06:51:51.150Z,718.00
2023-03-29T06:52:51.127Z,718.00
2023-03-29T06:53:51.152Z,718.00
2023-03-29T06:54:51.097Z,718.00
2023-03-29T06:55:51.091Z,718.00
2023-03-29T06:56:51.127Z,718.00
2023-03-29T06:57:51.095Z,718.00
2023-03-29T06:58:51.070Z,718.00
2023-03-29T06:59:51.039Z,718.00
2023-03-29T07:00:51.051Z,718.00
2023-03-29T07:01:51.061Z,718.00
2023-03-29T07:02:51.047Z,718.00
2023-03-29T07:03:51.029Z,719.00
2023-03-29T07:04:51.126Z,718.00
2023-03-29T07:05:50.978Z,718.00
2023-03-29T07:06:50.950Z,718.00
2023-03-29T07:07:50.929Z,719.00
2023-03-29T07:08:50.915Z,719.00
2023-03-29T07:09:50.932Z,719.00
2023-03-29T07:10:50.912Z,719.00
2023-03-29T07:11:50.896Z,719.00
2023-03-29T07:12:50.900Z,719.00
2023-03-29T07:13:50.888Z,719.00
2023-03-29T07:14:50.862Z,719.00
2023-03-29T07:15:50.860Z,719.00
2023-03-29T07:16:50.814Z,719.00
2023-03-29T07:17:50.839Z,719.00
2023-03-29T07:18:50.804Z,719.00
2023-03-29T07:19:50.788Z,719.00
2023-03-29T07:20:50.791Z,719.00
2023-03-29T07:21:50.951Z,719.00
2023-03-29T07:22:50.769Z,719.00
2023-03-29T07:23:50.717Z,719.00
2023-03-29T07:24:50.743Z,719.00
2023-03-29T07:25:50.712Z,719.00
2023-03-29T07:27:03.302Z,720.00
2023-03-29T07:27:50.719Z,720.00
2023-03-29T07:28:50.699Z,720.00
2023-03-29T07:29:50.794Z,720.00
2023-03-29T07:30:50.657Z,720.00
2023-03-29T07:31:50.692Z,720.00
2023-03-29T07:32:50.715Z,720.00
2023-03-29T07:33:50.669Z,720.00
2023-03-29T07:34:50.602Z,720.00
2023-03-29T07:35:50.586Z,720.00
2023-03-29T07:36:50.573Z,720.00
2023-03-29T07:37:50.605Z,720.00
2023-03-29T07:38:50.572Z,720.00
2023-03-29T07:39:50.540Z,720.00
2023-03-29T07:40:50.513Z,721.00
2023-03-29T07:41:50.530Z,721.00
2023-03-29T07:42:50.471Z,721.00
2023-03-29T07:43:50.476Z,721.00
2023-03-29T07:44:50.458Z,721.00
2023-03-29T07:45:50.491Z,721.00
2023-03-29T07:46:50.474Z,721.00
2023-03-29T07:47:50.445Z,721.00
2023-03-29T07:48:50.429Z,721.00
2023-03-29T07:49:50.417Z,721.00
2023-03-29T07:50:50.424Z,721.00
2023-03-29T07:51:50.386Z,721.00
2023-03-29T07:52:50.393Z,721.00
2023-03-29T07:53:50.376Z,722.00
2023-03-29T07:54:50.356Z,721.00
2023-03-29T07:55:50.362Z,721.00
2023-03-29T07:56:50.316Z,721.00
2023-03-29T07:57:50.297Z,722.00
2023-03-29T07:58:50.302Z,722.00
2023-03-29T07:59:50.308Z,722.00
2023-03-29T08:00:50.248Z,722.00
2023-03-29T08:01:50.238Z,722.00
2023-03-29T08:02:50.217Z,722.00
2023-03-29T08:03:50.219Z,722.00
2023-03-29T08:04:50.231Z,723.00
2023-03-29T08:05:50.177Z,723.00
2023-03-29T08:06:50.149Z,722.00
2023-03-29T08:07:50.170Z,723.00
2023-03-29T08:08:50.134Z,723.00
2023-03-29T08:09:50.116Z,723.00
2023-03-29T08:10:50.124Z,723.00
2023-03-29T08:11:50.097Z,723.00
2023-03-29T08:12:50.090Z,723.00
2023-03-29T08:13:50.074Z,724.00
2023-03-29T08:14:50.070Z,724.00
2023-03-29T08:15:50.093Z,723.00
2023-03-29T08:16:50.057Z,724.00
2023-03-29T08:17:50.075Z,724.00
2023-03-29T08:18:50.040Z,724.00
2023-03-29T08:19:51.034Z,724.00
2023-03-29T08:20:49.978Z,725.00
2023-03-29T08:21:49.958Z,725.00
2023-03-29T08:22:49.948Z,725.00
2023-03-29T08:23:49.938Z,725.00
2023-03-29T08:24:49.919Z,725.00
2023-03-29T08:25:49.929Z,725.00
2023-03-29T08:26:49.908Z,726.00
2023-03-29T08:27:49.904Z,726.00
2023-03-29T08:28:49.933Z,726.00
2023-03-29T08:29:49.860Z,726.00
2023-03-29T08:30:49.921Z,726.00
2023-03-29T08:31:49.858Z,726.00
2023-03-29T08:32:52.147Z,726.00
2023-03-29T08:33:49.844Z,726.00
2023-03-29T08:34:49.813Z,726.00
2023-03-29T08:35:49.824Z,725.00
2023-03-29T08:36:49.815Z,725.00
2023-03-29T08:37:49.782Z,725.00
2023-03-29T08:38:49.731Z,725.00
2023-03-29T08:39:49.753Z,726.00
2023-03-29T08:40:49.743Z,726.00
2023-03-29T08:41:49.712Z,727.00
2023-03-29T08:42:49.698Z,729.00
2023-03-29T08:43:49.705Z,730.00
2023-03-29T08:44:49.664Z,731.00
2023-03-29T08:45:51.047Z,731.00
2023-03-29T08:46:49.741Z,732.00
2023-03-29T08:47:49.683Z,733.00
2023-03-29T08:48:49.656Z,732.00
2023-03-29T08:49:49.609Z,732.00
2023-03-29T08:50:49.587Z,733.00
2023-03-29T08:51:49.602Z,735.00
2023-03-29T08:52:49.555Z,735.00
2023-03-29T08:53:49.547Z,735.00
2023-03-29T08:54:49.550Z,736.00
2023-03-29T08:55:49.522Z,736.00
2023-03-29T08:56:49.537Z,737.00
2023-03-29T08:57:49.505Z,738.00
2023-03-29T08:58:49.474Z,739.00
2023-03-29T08:59:49.477Z,739.00
2023-03-29T09:00:49.492Z,740.00
2023-03-29T09:01:49.463Z,740.00
2023-03-29T09:02:49.513Z,742.00
2023-03-29T09:03:49.499Z,741.00
2023-03-29T09:04:49.413Z,742.00
2023-03-29T09:05:49.406Z,743.00
2023-03-29T09:06:49.366Z,743.00
2023-03-29T09:07:49.370Z,743.00
2023-03-29T09:08:49.365Z,744.00
2023-03-29T09:09:49.365Z,742.00
2023-03-29T09:10:49.302Z,740.00
2023-03-29T09:11:49.336Z,740.00
2023-03-29T09:12:49.296Z,740.00
2023-03-29T09:13:49.286Z,741.00
2023-03-29T09:14:49.273Z,740.00
2023-03-29T09:15:49.296Z,741.00
2023-03-29T09:16:49.267Z,742.00
2023-03-29T09:17:49.803Z,742.00
2023-03-29T09:18:49.230Z,745.00
2023-03-29T09:19:49.221Z,748.00
2023-03-29T09:20:49.187Z,749.00
2023-03-29T09:21:49.189Z,749.00
2023-03-29T09:22:49.180Z,750.00
2023-03-29T09:23:49.160Z,750.00
2023-03-29T09:24:49.132Z,750.00
2023-03-29T09:25:53.566Z,750.00
2023-03-29T09:26:49.124Z,749.00
2023-03-29T09:27:49.105Z,748.00
2023-03-29T09:28:49.098Z,746.00
2023-03-29T09:29:49.091Z,743.00
2023-03-29T09:30:49.058Z,741.00
2023-03-29T09:31:49.094Z,740.00
2023-03-29T09:32:49.070Z,738.00
2023-03-29T09:33:49.005Z,738.00
2023-03-29T09:34:48.985Z,740.00
2023-03-29T09:35:49.015Z,742.00
2023-03-29T09:36:48.973Z,745.00
2023-03-29T09:37:48.964Z,746.00
2023-03-29T09:38:48.937Z,747.00
2023-03-29T09:39:48.936Z,747.00
2023-03-29T09:40:48.949Z,746.00
2023-03-29T09:41:48.897Z,744.00
2023-03-29T09:42:48.910Z,745.00
2023-03-29T09:43:48.901Z,748.00
2023-03-29T09:44:48.904Z,749.00
2023-03-29T09:45:48.897Z,750.00
2023-03-29T09:46:48.836Z,750.00
2023-03-29T09:47:48.864Z,751.00
2023-03-29T09:48:48.813Z,751.00
2023-03-29T09:49:48.822Z,752.00
2023-03-29T09:50:48.798Z,753.00
2023-03-29T09:51:48.760Z,753.00
2023-03-29T09:52:48.739Z,753.00
2023-03-29T09:53:48.747Z,749.00
2023-03-29T09:54:48.774Z,747.00
2023-03-29T09:55:50.385Z,745.00
2023-03-29T09:56:48.735Z,743.00
2023-03-29T09:57:48.691Z,746.00
2023-03-29T09:58:48.685Z,748.00
2023-03-29T09:59:48.662Z,747.00
2023-03-29T10:00:48.752Z,748.00
2023-03-29T10:01:48.655Z,749.00
2023-03-29T10:02:48.648Z,750.00
2023-03-29T10:03:48.628Z,751.00
2023-03-29T10:04:48.610Z,751.00
2023-03-29T10:05:48.594Z,751.00
2023-03-29T10:06:48.567Z,752.00
2023-03-29T10:07:48.564Z,752.00
2023-03-29T10:08:48.551Z,752.00
2023-03-29T10:09:48.569Z,753.00
2023-03-29T10:10:48.514Z,752.00
2023-03-29T10:11:48.535Z,751.00
2023-03-29T10:12:48.497Z,750.00
2023-03-29T10:13:48.479Z,750.00
2023-03-29T10:14:48.651Z,749.00
2023-03-29T10:15:48.443Z,748.00
2023-03-29T10:16:48.465Z,746.00
2023-03-29T10:17:48.490Z,747.00
2023-03-29T10:18:48.427Z,749.00
2023-03-29T10:19:48.394Z,750.00
2023-03-29T10:20:48.393Z,751.00
2023-03-29T10:21:48.365Z,752.00
2023-03-29T10:22:48.362Z,752.00
2023-03-29T10:23:48.345Z,751.00
2023-03-29T10:24:48.321Z,750.00
2023-03-29T10:25:48.342Z,747.00
2023-03-29T10:26:48.295Z,744.00
2023-03-29T10:27:48.328Z,744.00
2023-03-29T10:28:48.273Z,747.00
2023-03-29T10:29:48.291Z,748.00
2023-03-29T10:30:48.254Z,746.00
2023-03-29T10:31:48.256Z,745.00
2023-03-29T10:32:48.287Z,743.00
2023-03-29T10:33:48.251Z,744.00
2023-03-29T10:34:48.199Z,747.00
2023-03-29T10:35:48.236Z,748.00
2023-03-29T10:36:48.195Z,749.00
2023-03-29T10:37:48.163Z,749.00
2023-03-29T10:38:48.152Z,748.00
2023-03-29T10:39:48.143Z,746.00
2023-03-29T10:40:48.136Z,745.00
2023-03-29T10:41:48.107Z,743.00
2023-03-29T10:42:48.092Z,741.00
2023-03-29T10:43:48.095Z,741.00
2023-03-29T10:44:48.088Z,745.00
2023-03-29T10:45:48.096Z,748.00
2023-03-29T10:46:48.081Z,750.00
2023-03-29T10:47:48.074Z,751.00
2023-03-29T10:48:48.039Z,753.00
2023-03-29T10:49:48.187Z,752.00
2023-03-29T10:50:48.029Z,752.00
2023-03-29T10:51:47.976Z,751.00
2023-03-29T10:52:47.974Z,749.00
2023-03-29T10:53:47.966Z,746.00
2023-03-29T10:54:47.944Z,745.00
2023-03-29T10:55:47.957Z,744.00
2023-03-29T10:56:47.962Z,743.00
2023-03-29T10:57:47.940Z,743.00
2023-03-29T10:58:47.903Z,742.00
2023-03-29T10:59:47.880Z,743.00
2023-03-29T11:00:47.866Z,743.00
2023-03-29T11:01:47.896Z,742.00
2023-03-29T11:02:47.891Z,743.00
2023-03-29T11:03:47.923Z,743.00
2023-03-29T11:04:47.813Z,744.00
2023-03-29T11:05:47.817Z,743.00
2023-03-29T11:06:47.780Z,743.00
2023-03-29T11:07:47.807Z,744.00
2023-03-29T11:08:47.781Z,746.00
2023-03-29T11:09:47.760Z,748.00
2023-03-29T11:10:48.961Z,748.00
2023-03-29T11:11:47.721Z,747.00
2023-03-29T11:12:47.717Z,746.00
2023-03-29T11:13:47.699Z,745.00
2023-03-29T11:14:47.662Z,743.00
2023-03-29T11:15:47.687Z,742.00
2023-03-29T11:16:47.641Z,741.00
2023-03-29T11:17:47.757Z,741.00
2023-03-29T11:18:47.632Z,741.00
2023-03-29T11:19:47.619Z,741.00
2023-03-29T11:20:47.593Z,741.00
2023-03-29T11:21:47.568Z,742.00
2023-03-29T11:22:47.591Z,743.00
2023-03-29T11:23:47.608Z,743.00
2023-03-29T11:24:47.536Z,744.00
2023-03-29T11:25:47.544Z,745.00
2023-03-29T11:26:47.538Z,746.00
2023-03-29T11:27:47.523Z,747.00
2023-03-29T11:28:47.494Z,747.00
2023-03-29T11:29:47.460Z,746.00
2023-03-29T11:30:47.731Z,745.00
2023-03-29T11:31:47.465Z,743.00
2023-03-29T11:32:47.512Z,742.00
2023-03-29T11:33:47.471Z,742.00
2023-03-29T11:34:47.417Z,742.00
2023-03-29T11:35:47.425Z,741.00
2023-03-29T11:36:47.473Z,741.00
2023-03-29T11:37:47.543Z,741.00
2023-03-29T11:38:47.459Z,741.00
2023-03-29T11:39:47.337Z,742.00
2023-03-29T11:40:47.421Z,743.00
2023-03-29T11:41:47.342Z,743.00
2023-03-29T11:42:47.308Z,744.00
2023-03-29T11:43:47.266Z,744.00
2023-03-29T11:44:47.250Z,744.00
2023-03-29T11:45:47.274Z,743.00
2023-03-29T11:46:47.266Z,743.00
2023-03-29T11:47:47.335Z,743.00
2023-03-29T11:48:47.212Z,744.00
2023-03-29T11:49:47.211Z,743.00
2023-03-29T11:50:47.191Z,744.00
2023-03-29T11:51:47.182Z,744.00
2023-03-29T11:52:47.184Z,743.00
2023-03-29T11:53:47.167Z,743.00
2023-03-29T11:54:47.131Z,743.00
2023-03-29T11:55:47.127Z,743.00
2023-03-29T11:56:47.143Z,743.00
2023-03-29T11:57:47.115Z,742.00
2023-03-29T11:58:47.089Z,743.00
2023-03-29T11:59:47.086Z,743.00
2023-03-29T12:00:47.073Z,744.00
2023-03-29T12:01:47.090Z,744.00
2023-03-29T12:02:47.232Z,745.00
2023-03-29T12:03:47.467Z,745.00
2023-03-29T12:04:47.051Z,745.00
2023-03-29T12:05:47.008Z,745.00
2023-03-29T12:06:46.965Z,745.00
2023-03-29T12:07:46.991Z,745.00
2023-03-29T12:08:47.033Z,745.00
2023-03-29T12:09:46.954Z,745.00
2023-03-29T12:10:46.945Z,745.00
2023-03-29T12:11:46.893Z,745.00
2023-03-29T12:12:46.890Z,746.00
2023-03-29T12:13:46.866Z,748.00
2023-03-29T12:14:46.874Z,749.00
2023-03-29T12:15:46.848Z,750.00
2023-03-29T12:16:46.900Z,750.00
2023-03-29T12:17:46.926Z,751.00
2023-03-29T12:18:46.895Z,752.00
2023-03-29T12:19:46.798Z,752.00
2023-03-29T12:20:46.773Z,752.00
2023-03-29T12:21:46.775Z,751.00
2023-03-29T12:22:46.792Z,750.00
2023-03-29T12:23:46.775Z,748.00
2023-03-29T12:24:46.740Z,747.00
2023-03-29T12:25:46.703Z,746.00
2023-03-29T12:26:46.742Z,745.00
2023-03-29T12:27:46.696Z,746.00
2023-03-29T12:28:46.699Z,746.00